Time;durP1;ratioP1;P1;durP2;ratioP2;P2;SDS_P1;SDS_P2;PMS_P1;PMS_P2;Temp;Humidity;BMP_temperature;BMP_pressure;BME280_temperature;BME280_humidity;BME280_pressure;Samples;Min_cycle;Max_cycle;Signal;HPM_P1;HPM_P2
2024/02/24 00:02:23;;;;;;;30.50;28.50;;;;;;;5.24;100.00;100797.84;5096878;28;20067;-71
2024/02/24 00:04:50;;;;;;;29.48;27.58;;;;;;;5.77;100.00;100794.69;5106335;28;20044;-72
2024/02/24 00:07:17;;;;;;;30.23;28.33;;;;;;;6.26;100.00;100794.41;5102139;28;20047;-71
2024/02/24 00:09:44;;;;;;;31.17;28.80;;;;;;;6.57;100.00;100794.38;5079580;28;20050;-71
2024/02/24 00:12:13;;;;;;;34.53;32.13;;;;;;;6.37;100.00;100791.38;5099422;28;20166;-72
2024/02/24 00:14:40;;;;;;;32.90;30.70;;;;;;;5.68;100.00;100794.72;5102427;28;20048;-71
2024/02/24 00:17:07;;;;;;;29.77;27.70;;;;;;;6.13;100.00;100787.91;5092204;28;20059;-72
2024/02/24 00:19:34;;;;;;;28.05;26.05;;;;;;;6.61;100.00;100791.19;5091698;28;20130;-72
2024/02/24 00:22:01;;;;;;;30.90;28.90;;;;;;;6.34;100.00;100791.72;5100952;28;20593;-72
2024/02/24 00:24:27;;;;;;;32.45;30.35;;;;;;;6.58;100.00;100796.00;5099780;28;20051;-72
2024/02/24 00:26:54;;;;;;;29.63;27.63;;;;;;;5.87;100.00;100782.94;5100879;28;20044;-69
2024/02/24 00:29:23;;;;;;;29.30;27.30;;;;;;;5.51;100.00;100786.06;5094352;28;20514;-72
2024/02/24 00:31:50;;;;;;;30.27;28.38;;;;;;;5.64;100.00;100790.78;5070829;28;20311;-69
2024/02/24 00:34:17;;;;;;;30.98;28.98;;;;;;;6.01;100.00;100791.13;5099975;28;20758;-70
2024/02/24 00:36:44;;;;;;;30.92;28.92;;;;;;;6.59;100.00;100781.78;5098365;28;20058;-69
2024/02/24 00:39:10;;;;;;;32.50;30.33;;;;;;;6.31;100.00;100781.53;5094978;28;20057;-72
2024/02/24 00:41:37;;;;;;;30.45;28.45;;;;;;;6.39;100.00;100779.66;5097442;28;20048;-71
2024/02/24 00:44:05;;;;;;;29.45;27.55;;;;;;;6.34;100.00;100776.72;5103384;28;20052;-70
2024/02/24 00:46:35;;;;;;;30.95;28.95;;;;;;;6.26;100.00;100782.03;5097229;28;20052;-69
2024/02/24 00:49:02;;;;;;;33.38;31.27;;;;;;;6.25;100.00;100780.41;5093934;28;20058;-69
2024/02/24 00:51:29;;;;;;;30.88;28.98;;;;;;;6.38;100.00;100780.66;5100692;28;20538;-69
2024/02/24 00:53:56;;;;;;;31.92;29.85;;;;;;;6.33;100.00;100783.00;5089323;28;20525;-70
2024/02/24 00:56:23;;;;;;;29.05;27.15;;;;;;;6.14;100.00;100789.56;5101737;28;20060;-69
2024/02/24 00:58:50;;;;;;;30.80;28.83;;;;;;;6.34;100.00;100783.81;5090086;28;20721;-71
2024/02/24 01:01:17;;;;;;;32.92;31.02;;;;;;;6.27;100.00;100781.06;5102335;28;20052;-72
2024/02/24 01:03:45;;;;;;;29.65;27.95;;;;;;;6.05;100.00;100784.50;5101304;28;20057;-72
2024/02/24 01:06:12;;;;;;;30.98;29.08;;;;;;;6.19;100.00;100771.38;5094067;28;20908;-72
2024/02/24 01:08:39;;;;;;;32.17;30.27;;;;;;;6.11;100.00;100778.53;5105867;28;20093;-72
2024/02/24 01:11:07;;;;;;;34.20;32.20;;;;;;;5.99;100.00;100777.28;5098804;28;20128;-71
2024/02/24 01:13:34;;;;;;;27.85;26.05;;;;;;;6.07;100.00;100772.78;5093920;28;20075;-71
2024/02/24 01:16:01;;;;;;;28.77;26.88;;;;;;;6.02;100.00;100775.16;5095445;28;20486;-72
2024/02/24 01:18:28;;;;;;;30.05;28.17;;;;;;;5.82;100.00;100774.72;5095607;28;20052;-72
2024/02/24 01:20:56;;;;;;;29.60;27.65;;;;;;;5.96;100.00;100784.56;5085168;28;20100;-73
2024/02/24 01:23:24;;;;;;;30.00;28.00;;;;;;;6.08;100.00;100776.25;5099161;28;20486;-71
2024/02/24 01:25:52;;;;;;;31.42;29.30;;;;;;;6.17;100.00;100775.19;5102083;28;20043;-71
2024/02/24 01:28:22;;;;;;;30.30;28.33;;;;;;;6.21;100.00;100771.22;5102935;28;20833;-71
2024/02/24 01:30:49;;;;;;;30.98;28.98;;;;;;;6.11;100.00;100773.25;5089461;28;20458;-72
2024/02/24 01:33:16;;;;;;;30.83;28.63;;;;;;;6.11;100.00;100771.47;5105051;28;20441;-70
2024/02/24 01:35:42;;;;;;;33.80;31.70;;;;;;;5.79;100.00;100771.63;5099335;28;20144;-71
2024/02/24 01:38:11;;;;;;;32.15;29.95;;;;;;;5.95;100.00;100764.44;5100781;28;20396;-71
2024/02/24 01:40:38;;;;;;;30.63;28.70;;;;;;;6.11;100.00;100763.56;5094248;28;20105;-72
2024/02/24 01:43:23;;;;;;;28.13;26.13;;;;;;;5.44;100.00;100769.28;5102868;28;20053;-72
2024/02/24 01:45:50;;;;;;;30.60;28.70;;;;;;;5.42;100.00;100766.03;5070412;28;20060;-72
2024/02/24 01:48:17;;;;;;;29.38;27.35;;;;;;;5.41;100.00;100771.44;5096705;28;20043;-69
2024/02/24 01:50:46;;;;;;;29.10;27.20;;;;;;;5.19;100.00;100768.56;5098701;28;20051;-69
2024/02/24 01:53:15;;;;;;;27.75;25.92;;;;;;;5.34;100.00;100768.69;5104349;28;20055;-71
2024/02/24 01:55:44;;;;;;;27.92;26.13;;;;;;;4.82;100.00;100759.44;5099504;28;20047;-72
2024/02/24 01:58:12;;;;;;;32.95;30.85;;;;;;;4.85;100.00;100766.19;5100859;28;20055;-72
2024/02/24 02:00:38;;;;;;;30.35;28.25;;;;;;;4.73;100.00;100767.53;5093987;28;20052;-69
2024/02/24 02:03:06;;;;;;;27.88;26.17;;;;;;;5.58;100.00;100769.59;5096199;28;20044;-69
2024/02/24 02:05:34;;;;;;;28.45;26.65;;;;;;;5.99;100.00;100770.22;5100849;28;20438;-69
2024/02/24 02:08:01;;;;;;;30.40;28.50;;;;;;;4.93;100.00;100776.72;5093842;28;20051;-69
2024/02/24 02:10:43;;;;;;;28.38;26.48;;;;;;;5.38;100.00;100785.78;5098956;28;20454;-69
2024/02/24 02:13:10;;;;;;;30.23;28.08;;;;;;;5.86;100.00;100791.81;5086301;28;20162;-71
2024/02/24 02:15:37;;;;;;;32.10;30.00;;;;;;;6.05;100.00;100780.06;5099345;28;20078;-72
2024/02/24 02:18:05;;;;;;;29.77;27.88;;;;;;;6.16;100.00;100778.81;5093716;28;20531;-71
2024/02/24 02:20:32;;;;;;;28.40;26.50;;;;;;;6.03;100.00;100782.06;5083438;28;20052;-71
2024/02/24 02:23:00;;;;;;;29.05;27.15;;;;;;;5.48;100.00;100788.22;5096116;28;20102;-72
2024/02/24 02:25:27;;;;;;;28.40;26.50;;;;;;;5.49;100.00;100795.94;5101876;28;20450;-71
2024/02/24 02:27:54;;;;;;;29.50;27.65;;;;;;;5.87;100.00;100784.72;5090653;28;20061;-72
2024/02/24 02:30:21;;;;;;;30.33;28.10;;;;;;;5.78;100.00;100780.50;5092639;28;20078;-71
2024/02/24 02:32:48;;;;;;;31.90;29.60;;;;;;;5.73;100.00;100786.31;5099049;28;20062;-71
2024/02/24 02:35:15;;;;;;;31.88;29.98;;;;;;;5.47;100.00;100779.47;5104131;28;20047;-71
2024/02/24 02:37:43;;;;;;;33.95;31.95;;;;;;;5.58;100.00;100778.31;5106210;28;20063;-71
2024/02/24 02:40:12;;;;;;;29.83;28.02;;;;;;;5.56;100.00;100779.47;5102617;28;20071;-71
2024/02/24 02:42:38;;;;;;;29.70;27.90;;;;;;;5.29;100.00;100789.44;5105059;28;20795;-71
2024/02/24 02:45:06;;;;;;;29.45;27.73;;;;;;;5.25;100.00;100790.78;5090881;28;20071;-71
2024/02/24 02:47:33;;;;;;;33.30;31.30;;;;;;;5.51;100.00;100790.53;5095822;28;20044;-72
2024/02/24 02:50:00;;;;;;;38.28;29.10;;;;;;;5.29;100.00;100789.44;5087551;28;20051;-72
2024/02/24 02:52:27;;;;;;;30.38;28.65;;;;;;;5.02;100.00;100783.59;5104917;28;20061;-72
2024/02/24 02:54:54;;;;;;;30.17;28.38;;;;;;;5.34;100.00;100789.75;5093305;28;20079;-71
2024/02/24 02:57:24;;;;;;;30.42;28.55;;;;;;;5.30;100.00;100779.75;5098530;28;20142;-72
2024/02/24 02:59:51;;;;;;;31.55;29.65;;;;;;;5.49;100.00;100785.41;5088189;28;20427;-71
2024/02/24 03:02:18;;;;;;;28.73;27.02;;;;;;;5.54;100.00;100784.91;5101884;28;20043;-71
2024/02/24 03:04:44;;;;;;;32.00;30.20;;;;;;;5.19;100.00;100794.06;5092505;28;20052;-71
2024/02/24 03:07:11;;;;;;;29.23;27.42;;;;;;;5.15;100.00;100790.97;5096437;28;20043;-72
2024/02/24 03:09:38;;;;;;;29.30;27.50;;;;;;;5.17;100.00;100799.50;5090548;28;20043;-71
2024/02/24 03:12:05;;;;;;;29.23;27.42;;;;;;;5.15;100.00;100803.31;5094586;28;20853;-72
2024/02/24 03:14:34;;;;;;;32.80;30.90;;;;;;;5.11;100.00;100789.63;5089196;28;20526;-71
2024/02/24 03:17:01;;;;;;;32.67;30.67;;;;;;;5.15;100.00;100795.41;5098669;28;20427;-71
2024/02/24 03:19:28;;;;;;;31.02;29.23;;;;;;;4.87;100.00;100800.22;5099038;28;20056;-71
2024/02/24 03:21:58;;;;;;;34.42;32.33;;;;;;;5.40;100.00;100809.31;5098932;28;20112;-72
2024/02/24 03:24:25;;;;;;;31.80;29.95;;;;;;;4.83;100.00;100799.72;5097212;28;20062;-71
2024/02/24 03:26:52;;;;;;;32.72;30.83;;;;;;;4.35;100.00;100799.56;5099112;28;20051;-72
2024/02/24 03:29:19;;;;;;;33.00;31.10;;;;;;;4.43;100.00;100800.56;5100226;28;20051;-71
2024/02/24 03:31:47;;;;;;;33.08;31.10;;;;;;;4.31;100.00;100792.19;5104805;28;20059;-71
2024/02/24 03:34:14;;;;;;;31.60;29.75;;;;;;;4.22;100.00;100796.59;5102976;28;20048;-71
2024/02/24 03:36:41;;;;;;;31.83;29.70;;;;;;;4.02;100.00;100792.63;5090484;28;20062;-71
2024/02/24 03:39:08;;;;;;;31.70;29.73;;;;;;;4.10;100.00;100801.34;5101425;28;20503;-71
2024/02/24 03:41:35;;;;;;;35.78;33.58;;;;;;;4.28;100.00;100803.84;5098420;28;20054;-71
2024/02/24 03:44:02;;;;;;;34.45;32.28;;;;;;;4.23;100.00;100802.69;5102933;28;20056;-72
2024/02/24 03:46:29;;;;;;;33.20;31.00;;;;;;;4.24;100.00;100810.41;5100962;28;20602;-71
2024/02/24 03:48:57;;;;;;;33.97;31.95;;;;;;;4.68;100.00;100806.66;5093372;28;20048;-71
2024/02/24 03:51:24;;;;;;;32.65;30.75;;;;;;;5.25;100.00;100812.66;5103699;28;20060;-71
2024/02/24 03:53:51;;;;;;;35.53;33.30;;;;;;;5.64;100.00;100817.13;5103526;28;20112;-72
2024/02/24 03:56:18;;;;;;;34.92;32.83;;;;;;;5.61;100.00;100808.75;5079495;28;20055;-72
2024/02/24 03:58:45;;;;;;;33.72;31.73;;;;;;;4.19;100.00;100819.78;5094900;28;20044;-71
2024/02/24 04:01:12;;;;;;;33.17;30.85;;;;;;;3.68;100.00;100825.03;5105934;28;20044;-71
2024/02/24 04:03:39;;;;;;;30.35;28.48;;;;;;;3.61;100.00;100830.09;5093214;28;20090;-71
2024/02/24 04:06:07;;;;;;;30.10;28.13;;;;;;;3.52;100.00;100830.22;5109069;28;20423;-71
2024/02/24 04:08:34;;;;;;;30.63;28.63;;;;;;;3.55;100.00;100829.91;5093083;28;20060;-71
2024/02/24 04:11:02;;;;;;;35.95;33.75;;;;;;;3.68;100.00;100833.72;5105670;28;20043;-71
2024/02/24 04:13:29;;;;;;;32.88;30.80;;;;;;;3.63;100.00;100832.56;5099085;27;20075;-71
2024/02/24 04:15:56;;;;;;;32.72;30.75;;;;;;;3.51;100.00;100833.81;5099563;28;20048;-72
2024/02/24 04:18:23;;;;;;;32.15;30.08;;;;;;;3.81;100.00;100838.56;5092928;28;20044;-72
2024/02/24 04:20:52;;;;;;;33.05;30.98;;;;;;;4.04;100.00;100843.22;5095994;28;20059;-72
2024/02/24 04:23:20;;;;;;;31.98;30.17;;;;;;;3.73;100.00;100841.16;5094756;28;20186;-71
2024/02/24 04:25:47;;;;;;;33.70;31.70;;;;;;;3.92;100.00;100839.25;5100040;28;20412;-71
2024/02/24 04:28:14;;;;;;;32.05;29.60;;;;;;;4.29;100.00;100830.94;5098748;28;20056;-71
2024/02/24 04:30:41;;;;;;;33.55;31.45;;;;;;;4.46;100.00;100829.19;5089999;28;20139;-71
2024/02/24 04:33:08;;;;;;;34.08;32.00;;;;;;;4.06;100.00;100843.91;5095917;28;20056;-72
2024/02/24 04:35:35;;;;;;;32.50;30.40;;;;;;;3.68;100.00;100846.88;5099985;28;20059;-71
2024/02/24 04:38:06;;;;;;;32.95;31.02;;;;;;;3.63;100.00;100841.28;5101353;28;20044;-71
2024/02/24 04:40:35;;;;;;;33.45;31.35;;;;;;;3.44;100.00;100839.69;5093949;28;20052;-72
2024/02/24 04:43:02;;;;;;;31.45;29.45;;;;;;;3.12;100.00;100842.97;5103454;28;20124;-71
2024/02/24 04:45:29;;;;;;;30.67;28.77;;;;;;;3.07;100.00;100842.59;5095745;28;20167;-71
2024/02/24 04:47:56;;;;;;;32.80;30.70;;;;;;;2.92;100.00;100844.94;5104849;28;20068;-71
2024/02/24 04:50:23;;;;;;;29.90;28.00;;;;;;;3.10;100.00;100841.47;5101184;28;20537;-72
2024/02/24 04:52:50;;;;;;;27.90;26.10;;;;;;;3.42;100.00;100849.56;5084804;28;20056;-71
2024/02/24 04:55:17;;;;;;;30.13;28.10;;;;;;;3.82;100.00;100849.91;5091308;28;20048;-71
2024/02/24 04:57:45;;;;;;;31.15;29.05;;;;;;;3.88;100.00;100855.34;5087395;28;20048;-71
2024/02/24 05:00:13;;;;;;;28.30;26.35;;;;;;;4.02;100.00;100853.06;5085588;28;20052;-71
2024/02/24 05:02:40;;;;;;;27.15;25.20;;;;;;;4.45;100.00;100849.41;5086876;28;20052;-71
2024/02/24 05:05:07;;;;;;;27.35;25.50;;;;;;;4.15;100.00;100860.53;5085129;28;20048;-71
2024/02/24 05:07:34;;;;;;;28.50;26.42;;;;;;;4.44;100.00;100857.44;5085998;28;20043;-71
2024/02/24 05:10:01;;;;;;;28.60;26.60;;;;;;;4.09;100.00;100856.72;5087746;28;20496;-71
2024/02/24 05:12:28;;;;;;;31.58;29.42;;;;;;;4.20;100.00;100864.28;5088725;28;20059;-72
2024/02/24 05:14:56;;;;;;;25.67;23.98;;;;;;;3.87;100.00;100879.13;5086726;28;20125;-71
2024/02/24 05:17:23;;;;;;;28.23;26.23;;;;;;;3.81;100.00;100885.88;5089425;28;20443;-71
2024/02/24 05:19:50;;;;;;;25.65;23.92;;;;;;;3.63;100.00;100890.34;5091629;28;20059;-71
2024/02/24 05:22:17;;;;;;;26.05;24.35;;;;;;;3.38;100.00;100889.38;5081285;28;20044;-71
2024/02/24 05:24:44;;;;;;;27.08;25.27;;;;;;;3.05;100.00;100899.66;5089098;28;20417;-72
2024/02/24 05:27:11;;;;;;;34.35;32.05;;;;;;;3.10;100.00;100904.47;5089232;28;20059;-71
2024/02/24 05:29:38;;;;;;;30.90;28.70;;;;;;;3.36;100.00;100896.59;5089626;28;20784;-71
2024/02/24 05:32:07;;;;;;;35.25;32.85;;;;;;;3.25;100.00;100905.56;5091272;28;20059;-71
2024/02/24 05:34:34;;;;;;;32.95;30.85;;;;;;;3.35;100.00;100914.16;5085245;28;20074;-71
2024/02/24 05:37:01;;;;;;;32.60;30.60;;;;;;;3.54;100.00;100921.03;5084139;28;20044;-71
2024/02/24 05:39:28;;;;;;;31.02;29.00;;;;;;;3.62;100.00;100928.09;5095519;28;20438;-71
2024/02/24 05:41:54;;;;;;;36.58;34.28;;;;;;;3.73;100.00;100938.34;5088008;28;20048;-71
2024/02/24 05:44:21;;;;;;;32.38;29.95;;;;;;;3.74;100.00;100941.81;5086689;28;20062;-70
2024/02/24 05:46:48;;;;;;;35.20;33.10;;;;;;;3.75;100.00;100943.44;5083039;28;20056;-70
2024/02/24 05:49:16;;;;;;;37.15;34.85;;;;;;;4.05;100.00;100948.19;5089577;28;20048;-71
2024/02/24 05:51:44;;;;;;;35.55;32.95;;;;;;;4.21;100.00;100955.34;5085270;28;20052;-71
2024/02/24 05:54:11;;;;;;;33.72;30.85;;;;;;;4.29;100.00;100955.34;5089321;28;20048;-71
2024/02/24 05:56:37;;;;;;;32.90;30.00;;;;;;;4.51;100.00;100958.41;5092189;28;20629;-71
2024/02/24 05:59:04;;;;;;;36.10;33.80;;;;;;;4.43;100.00;100961.81;5086539;28;20075;-71
2024/02/24 06:01:31;;;;;;;41.35;38.05;;;;;;;4.78;100.00;100954.66;5089110;28;20411;-71
2024/02/24 06:03:58;;;;;;;39.47;36.22;;;;;;;4.80;100.00;100966.69;5085184;28;20048;-71
2024/02/24 06:06:27;;;;;;;41.88;38.28;;;;;;;4.71;100.00;100965.00;5089256;28;20063;-72
2024/02/24 06:08:55;;;;;;;32.58;30.42;;;;;;;4.80;100.00;100977.22;5088303;28;20117;-71
2024/02/24 06:11:22;;;;;;;32.85;30.65;;;;;;;5.12;100.00;100970.34;5083363;28;20079;-71
2024/02/24 06:13:52;;;;;;;33.78;31.75;;;;;;;5.05;100.00;100985.13;5086567;28;20048;-71
2024/02/24 06:16:19;;;;;;;31.67;29.58;;;;;;;5.00;100.00;100984.81;5087249;28;20044;-71
2024/02/24 06:18:46;;;;;;;34.78;31.85;;;;;;;5.21;100.00;100990.44;5085200;28;20078;-71
2024/02/24 06:21:13;;;;;;;32.00;29.80;;;;;;;5.77;100.00;100982.63;5082567;28;20070;-71
2024/02/24 06:23:41;;;;;;;31.65;29.65;;;;;;;5.91;100.00;100976.69;5087344;28;20537;-72
2024/02/24 06:26:08;;;;;;;33.65;31.45;;;;;;;6.09;100.00;100976.50;5083158;28;20701;-71
2024/02/24 06:28:35;;;;;;;36.00;33.53;;;;;;;6.25;100.00;100980.06;5088772;28;20819;-75
2024/02/24 06:31:02;;;;;;;34.15;31.50;;;;;;;6.52;100.00;100979.59;5097055;28;20132;-71
2024/02/24 06:33:29;;;;;;;31.92;29.92;;;;;;;6.39;100.00;100984.63;5078266;28;20052;-70
2024/02/24 06:35:56;;;;;;;33.35;31.35;;;;;;;6.29;100.00;100987.44;5090931;28;20518;-71
2024/02/24 06:38:23;;;;;;;30.75;28.92;;;;;;;6.53;100.00;100988.34;5095540;28;20051;-70
2024/02/24 06:40:51;;;;;;;34.10;31.90;;;;;;;6.78;100.00;100984.59;5084922;28;20454;-71
2024/02/24 06:43:18;;;;;;;33.20;31.20;;;;;;;7.12;100.00;100991.28;5091411;28;20090;-71
2024/02/24 06:45:45;;;;;;;33.83;31.73;;;;;;;7.09;100.00;100983.72;5088547;28;20123;-71
2024/02/24 06:48:12;;;;;;;32.92;30.95;;;;;;;7.13;100.00;100990.28;5092579;28;20052;-71
2024/02/24 06:50:39;;;;;;;31.35;29.35;;;;;;;7.21;100.00;100978.84;5087988;28;20418;-71
2024/02/24 06:53:06;;;;;;;35.45;33.35;;;;;;;7.39;100.00;100983.81;5097687;28;20070;-71
2024/02/24 06:55:32;;;;;;;34.95;32.95;;;;;;;7.76;100.00;100991.72;5086526;28;20434;-71
2024/02/24 06:58:01;;;;;;;33.92;31.92;;;;;;;7.90;100.00;100992.75;5086474;28;20052;-70
2024/02/24 07:00:28;;;;;;;33.08;30.95;;;;;;;8.11;100.00;100993.81;5084882;28;20063;-72
2024/02/24 07:02:55;;;;;;;35.28;33.10;;;;;;;8.65;100.00;100990.88;5101017;28;20056;-75
2024/02/24 07:05:22;;;;;;;32.45;30.55;;;;;;;8.63;100.00;100988.44;5092663;28;20064;-76
2024/02/24 07:07:48;;;;;;;30.80;29.00;;;;;;;8.86;100.00;100990.09;5092525;28;20052;-75
2024/02/24 07:10:15;;;;;;;30.73;28.83;;;;;;;9.38;100.00;100994.28;5087776;28;20056;-75
2024/02/24 07:12:49;;;;;;;31.90;29.70;;;;;;;9.63;100.00;100992.00;5097481;28;20056;-75
2024/02/24 07:15:17;;;;;;;33.60;31.60;;;;;;;9.66;100.00;100988.97;5089853;28;20044;-75
2024/02/24 07:17:44;;;;;;;36.45;33.80;;;;;;;9.95;100.00;100985.28;5088617;28;20044;-75
2024/02/24 07:20:13;;;;;;;32.47;30.58;;;;;;;10.72;100.00;100981.56;5094415;28;20052;-75
2024/02/24 07:22:41;;;;;;;31.65;29.85;;;;;;;10.51;100.00;100985.19;5091592;28;20420;-74
2024/02/24 07:25:09;;;;;;;31.15;29.27;;;;;;;10.70;100.00;100977.47;5089213;28;20052;-74
2024/02/24 07:27:36;;;;;;;30.45;28.67;;;;;;;10.67;100.00;100972.56;5094502;28;20040;-74
2024/02/24 07:30:03;;;;;;;32.78;30.88;;;;;;;11.07;100.00;100972.63;5086878;28;20040;-74
2024/02/24 07:32:33;;;;;;;38.13;35.85;;;;;;;11.40;100.00;100984.09;5093665;28;20558;-74
2024/02/24 07:35:00;;;;;;;42.35;39.95;;;;;;;11.61;100.00;100983.06;5088648;28;20054;-74
2024/02/24 07:37:28;;;;;;;32.30;30.20;;;;;;;11.81;100.00;100992.91;5088246;28;20040;-74
2024/02/24 07:39:58;;;;;;;31.35;29.35;;;;;;;12.01;100.00;100979.56;5095648;28;20055;-74
2024/02/24 07:42:27;;;;;;;36.50;34.17;;;;;;;12.30;100.00;100981.72;5093638;28;20048;-74
2024/02/24 07:44:56;;;;;;;32.65;30.60;;;;;;;12.57;100.00;100985.09;5087826;28;20048;-74
2024/02/24 07:47:23;;;;;;;34.58;32.47;;;;;;;12.93;100.00;100978.34;5084547;28;20048;-74
2024/02/24 07:49:51;;;;;;;44.15;40.88;;;;;;;13.44;100.00;100984.56;5081797;28;20052;-74
2024/02/24 07:52:27;;;;;;;43.92;41.33;;;;;;;14.54;100.00;100975.81;5084873;28;20540;-74
2024/02/24 07:54:58;;;;;;;33.80;31.70;;;;;;;14.78;100.00;100974.06;5086045;28;20048;-74
2024/02/24 07:57:25;;;;;;;36.15;33.55;;;;;;;14.83;100.00;100977.69;5086058;28;20106;-74
2024/02/24 07:59:52;;;;;;;35.25;33.03;;;;;;;14.92;100.00;100978.19;5084818;28;20048;-74
2024/02/24 08:02:20;;;;;;;35.42;33.22;;;;;;;14.69;100.00;100975.44;5086638;28;20293;-74
2024/02/24 08:04:46;;;;;;;36.30;33.90;;;;;;;14.92;100.00;100983.53;5084904;28;20564;-74
2024/02/24 08:07:15;;;;;;;34.92;32.72;;;;;;;15.40;100.00;100979.91;5087050;28;20456;-74
2024/02/24 08:09:44;;;;;;;36.58;34.20;;;;;;;15.49;100.00;100983.88;5087630;28;20048;-74
2024/02/24 08:12:11;;;;;;;58.38;36.58;;;;;;;15.79;100.00;100983.78;5094304;28;20039;-74
2024/02/24 08:14:37;;;;;;;35.75;33.50;;;;;;;16.42;100.00;100990.19;5091391;28;20051;-74
2024/02/24 08:17:05;;;;;;;41.63;39.13;;;;;;;15.97;100.00;100977.47;5089146;28;20056;-74
2024/02/24 08:19:33;;;;;;;37.65;35.35;;;;;;;16.70;100.00;100984.03;5094178;28;20048;-74
2024/02/24 08:22:00;;;;;;;34.20;32.10;;;;;;;16.94;100.00;100982.09;5084632;28;20044;-74
2024/02/24 08:24:29;;;;;;;35.70;33.50;;;;;;;16.88;100.00;100984.91;5089959;28;20137;-74
2024/02/24 08:26:58;;;;;;;47.40;44.70;;;;;;;17.88;100.00;100983.28;5092516;28;20044;-74
2024/02/24 08:29:26;;;;;;;45.30;42.50;;;;;;;17.70;100.00;100986.22;5091399;28;20701;-74
2024/02/24 08:31:53;;;;;;;37.60;35.10;;;;;;;17.63;100.00;100973.78;5090875;28;20066;-75
2024/02/24 08:34:20;;;;;;;38.33;35.67;;;;;;;17.52;100.00;100979.22;5086933;28;20044;-74
2024/02/24 08:36:48;;;;;;;50.03;47.08;;;;;;;17.99;100.00;100981.56;5093307;28;20048;-74
2024/02/24 08:39:15;;;;;;;53.00;49.90;;;;;;;17.27;100.00;100975.09;5093388;28;20101;-74
2024/02/24 08:41:43;;;;;;;50.47;47.47;;;;;;;18.49;100.00;100972.50;5088639;28;20174;-74
2024/02/24 08:44:10;;;;;;;55.15;51.75;;;;;;;18.61;100.00;100965.09;5080400;28;20044;-74
2024/02/24 08:46:37;;;;;;;55.55;52.22;;;;;;;15.68;100.00;100970.41;5087679;28;20044;-74
2024/02/24 08:49:04;;;;;;;44.10;41.10;;;;;;;16.52;100.00;100964.63;5087316;28;20048;-74
2024/02/24 08:51:31;;;;;;;52.17;48.88;;;;;;;16.16;100.00;100972.78;5086492;28;20079;-74
2024/02/24 08:53:58;;;;;;;56.65;53.33;;;;;;;16.33;100.00;100958.63;5085969;28;20048;-74
2024/02/24 08:56:25;;;;;;;51.17;48.08;;;;;;;16.44;100.00;100961.28;5090630;28;20056;-74
2024/02/24 08:58:53;;;;;;;52.53;49.22;;;;;;;17.07;100.00;100970.22;5091350;28;20047;-74
2024/02/24 09:01:20;;;;;;;35.70;33.13;;;;;;;15.78;100.00;100970.63;5090281;28;20044;-74
2024/02/24 09:03:47;;;;;;;40.95;38.15;;;;;;;14.12;100.00;100962.31;5093588;28;20493;-74
2024/02/24 09:06:15;;;;;;;41.45;38.65;;;;;;;16.19;100.00;100971.50;5092790;28;20051;-74
2024/02/24 09:08:42;;;;;;;42.10;39.40;;;;;;;16.66;100.00;100968.66;5090593;28;20509;-74
2024/02/24 09:11:09;;;;;;;50.78;47.58;;;;;;;15.91;100.00;100966.88;5090913;28;20059;-74
2024/02/24 09:13:36;;;;;;;49.03;45.92;;;;;;;15.22;100.00;100978.13;5089861;28;20058;-74
2024/02/24 09:16:04;;;;;;;52.70;49.40;;;;;;;16.25;100.00;100970.56;5090204;28;20097;-74
2024/02/24 09:18:31;;;;;;;52.97;49.70;;;;;;;18.11;100.00;100976.06;4733767;28;10000347;-74
2024/02/24 09:20:58;;;;;;;52.95;49.85;;;;;;;16.00;100.00;100973.50;5093822;28;20044;-75
2024/02/24 09:23:25;;;;;;;33.55;31.08;;;;;;;16.15;100.00;100968.47;5085635;28;20065;-75
2024/02/24 09:25:53;;;;;;;54.15;50.85;;;;;;;16.75;100.00;100964.53;5090282;28;20071;-75
2024/02/24 09:28:20;;;;;;;56.35;52.42;;;;;;;13.89;100.00;100961.16;5079066;28;20642;-74
2024/02/24 09:30:47;;;;;;;53.70;50.38;;;;;;;13.70;100.00;100965.63;5090364;28;20052;-74
2024/02/24 09:33:15;;;;;;;55.40;52.10;;;;;;;16.55;100.00;100961.47;5095786;28;20465;-74
2024/02/24 09:35:42;;;;;;;45.33;42.42;;;;;;;15.39;100.00;100962.22;5093261;28;20055;-75
2024/02/24 09:38:09;;;;;;;55.70;52.50;;;;;;;16.13;100.00;100962.53;5097196;28;20511;-75
2024/02/24 09:40:36;;;;;;;55.67;52.38;;;;;;;15.92;100.00;100971.19;5100439;28;20438;-75
2024/02/24 09:43:04;;;;;;;47.97;45.08;;;;;;;18.96;97.52;100967.31;5108401;28;20051;-74
2024/02/24 09:45:35;;;;;;;47.55;44.65;;;;;;;19.53;100.00;100965.09;5106090;28;20052;-74
2024/02/24 09:48:02;;;;;;;50.92;47.60;;;;;;;19.52;72.02;100961.59;5099044;28;20793;-72
2024/02/24 09:50:31;;;;;;;60.47;56.65;;;;;;;19.34;75.88;100967.38;5100920;28;20059;-72
2024/02/24 09:52:58;;;;;;;62.30;58.20;;;;;;;21.36;58.00;100964.06;5091660;28;20051;-72
2024/02/24 09:55:25;;;;;;;54.17;50.58;;;;;;;17.57;97.89;100969.38;5087151;28;20064;-72
2024/02/24 09:57:56;;;;;;;51.35;47.85;;;;;;;16.82;100.00;100967.09;5087709;28;20043;-72
2024/02/24 10:00:23;;;;;;;41.40;38.40;;;;;;;15.38;100.00;100957.09;5078938;28;20048;-72
2024/02/24 10:02:50;;;;;;;42.35;39.15;;;;;;;15.12;100.00;100954.59;5092121;28;20420;-72
2024/02/24 10:05:17;;;;;;;59.05;55.25;;;;;;;14.92;100.00;100958.63;5092239;28;20458;-73
2024/02/24 10:07:46;;;;;;;53.33;49.72;;;;;;;16.49;100.00;100950.66;5098714;28;20438;-72
2024/02/24 10:10:16;;;;;;;39.72;36.75;;;;;;;20.44;64.50;100951.25;5081639;28;20507;-73
2024/02/24 10:12:56;;;;;;;54.92;51.28;;;;;;;19.51;68.38;100962.63;5090723;28;20117;-72
2024/02/24 10:15:23;;;;;;;61.83;57.92;;;;;;;16.58;100.00;100953.78;5103069;28;20056;-73
2024/02/24 10:17:50;;;;;;;61.08;57.25;;;;;;;15.62;100.00;100955.25;5094907;28;20652;-72
2024/02/24 10:20:17;;;;;;;59.85;55.95;;;;;;;18.36;88.56;100970.19;5092613;28;20051;-72
2024/02/24 10:22:46;;;;;;;60.72;56.72;;;;;;;19.07;79.24;100946.72;5090052;28;20755;-73
2024/02/24 10:25:14;;;;;;;60.65;56.75;;;;;;;16.93;100.00;100950.13;5087595;28;20052;-72
2024/02/24 10:27:43;;;;;;;61.58;57.67;;;;;;;21.98;58.62;100954.72;5096239;28;20057;-72
2024/02/24 10:30:11;;;;;;;60.20;56.30;;;;;;;16.00;100.00;100944.84;5097833;28;20127;-72
2024/02/24 10:32:39;;;;;;;62.28;58.47;;;;;;;23.58;51.05;100936.31;5088188;28;20477;-73
2024/02/24 10:35:07;;;;;;;64.88;60.97;;;;;;;19.79;58.67;100945.34;5089740;28;20055;-73
2024/02/24 10:37:35;;;;;;;65.82;61.65;;;;;;;17.30;79.42;100946.97;5088631;28;20061;-72
2024/02/24 10:40:05;;;;;;;61.97;57.97;;;;;;;23.14;50.13;100938.06;5099880;28;20788;-73
2024/02/24 10:42:32;;;;;;;59.80;55.90;;;;;;;16.19;100.00;100936.66;5106681;28;20058;-72
2024/02/24 10:44:59;;;;;;;61.63;57.70;;;;;;;20.87;63.60;100937.56;5097153;28;20090;-73
2024/02/24 10:47:27;;;;;;;61.83;57.83;;;;;;;20.15;59.24;100934.69;5102921;28;20059;-73
2024/02/24 10:49:54;;;;;;;65.38;61.38;;;;;;;19.29;64.48;100935.81;5104902;28;20466;-72
2024/02/24 10:52:21;;;;;;;69.13;64.93;;;;;;;20.58;58.56;100938.09;5094531;28;20056;-72
2024/02/24 10:54:51;;;;;;;65.72;61.53;;;;;;;20.35;58.52;100934.75;5094753;28;20055;-73
2024/02/24 10:57:20;;;;;;;64.32;60.30;;;;;;;18.71;73.57;100932.91;5089463;28;20476;-73
2024/02/24 10:59:48;;;;;;;67.13;62.97;;;;;;;23.46;47.82;100926.66;5095539;28;20177;-73
2024/02/24 11:02:15;;;;;;;65.65;61.65;;;;;;;24.83;42.55;100931.41;5100408;28;20060;-73
2024/02/24 11:04:42;;;;;;;64.60;60.50;;;;;;;21.24;58.69;100932.72;5093438;28;20070;-73
2024/02/24 11:07:20;;;;;;;63.15;59.15;;;;;;;22.22;45.34;100921.66;5090272;28;20055;-73
2024/02/24 11:09:48;;;;;;;67.32;63.28;;;;;;;21.32;52.49;100930.53;5092181;28;20040;-73